EGXE

Leeming Airport

Leeming, United Kingdom
METAR EGXE 200050Z AUTO 18010KT 9999 BKN200/// BKN240/// 11/08 Q1008
Observed Flight Rules
Sep-20 @ 00:50 UTC (31 minutes ago) Visual Flight Rules
Wind Visibility Clouds
180° at 10 knots 10,000+ meters
  • Broken at 20,000' AGL
  • Broken at 24,000' AGL
Temperatures Readings
Current 11°C / 52°F
Dewpoint 8°C / 46°F
Humidity 82%
Altimeter 29.76" Hg
Pressure 1008 hPa
Elevation 40
METAR EGXE 200050Z AUTO 18010KT 9999 BKN200/// BKN240/// 11/08 Q1008
Observed Flight Rules
Sep-20 @ 00:50 UTC
(31 minutes ago)
VFR
Wind Visibility
180° at 10 knots 10,000+ meters
Clouds
  • Broken at 20,000' AGL
  • Broken at 24,000' AGL
Temperature Dewpoint
11°C / 52°F 8°C / 46°F
Humidity Altimeter Pressure
82% 29.76" Hg 1008 hPa